Time;durP1;ratioP1;P1;durP2;ratioP2;P2;SDS_P1;SDS_P2;PMS_P1;PMS_P2;Temp;Humidity;BMP_temperature;BMP_pressure;BME280_temperature;BME280_humidity;BME280_pressure;Samples;Min_cycle;Max_cycle;Signal;HPM_P1;HPM_P2
2022/07/18 00:01:45;;;;;;;13.40;8.00;;;;;;;;;;5072544;28;20041;-57
2022/07/18 00:04:11;;;;;;;16.43;8.17;;;;;;;;;;5071705;28;20160;-58
2022/07/18 00:06:37;;;;;;;11.73;7.53;;;;;;;;;;5067388;28;20136;-58
2022/07/18 00:09:04;;;;;;;13.87;7.63;;;;;;;;;;5071748;28;20131;-58
2022/07/18 00:11:30;;;;;;;10.30;7.33;;;;;;;;;;5071362;28;20440;-58
2022/07/18 00:13:56;;;;;;;12.93;7.87;;;;;;;;;;5069375;28;20045;-59
2022/07/18 00:16:25;;;;;;;11.43;7.73;;;;;;;;;;5059742;28;20044;-57
2022/07/18 00:18:51;;;;;;;12.77;7.40;;;;;;;;;;5060515;28;20075;-58
2022/07/18 00:21:17;;;;;;;12.13;7.30;;;;;;;;;;5060252;28;20036;-58
2022/07/18 00:23:43;;;;;;;12.87;7.80;;;;;;;;;;5058566;28;20068;-58
2022/07/18 00:26:09;;;;;;;17.17;7.70;;;;;;;;;;5060354;28;20723;-58
2022/07/18 00:28:35;;;;;;;12.20;8.13;;;;;;;;;;5059992;28;20045;-57
2022/07/18 00:31:01;;;;;;;13.37;8.00;;;;;;;;;;5058650;28;20099;-58
2022/07/18 00:33:27;;;;;;;14.57;8.20;;;;;;;;;;5060191;28;20052;-58
2022/07/18 00:35:53;;;;;;;12.63;8.37;;;;;;;;;;5059343;28;20037;-58
2022/07/18 00:38:19;;;;;;;13.87;7.63;;;;;;;;;;5058368;28;20040;-58
2022/07/18 00:40:45;;;;;;;10.17;7.63;;;;;;;;;;5060858;28;20076;-58
2022/07/18 00:43:15;;;;;;;12.93;8.53;;;;;;;;;;5058794;28;20056;-58
2022/07/18 00:45:45;;;;;;;11.60;7.77;;;;;;;;;;5058618;28;20399;-58
2022/07/18 00:48:12;;;;;;;12.60;7.80;;;;;;;;;;5058949;28;20072;-58
2022/07/18 00:50:38;;;;;;;15.80;9.00;;;;;;;;;;5059111;28;20055;-57
2022/07/18 00:53:05;;;;;;;10.30;7.70;;;;;;;;;;5060243;28;20044;-58
2022/07/18 00:55:31;;;;;;;12.23;7.43;;;;;;;;;;5060135;28;20451;-57
2022/07/18 00:57:57;;;;;;;11.43;8.37;;;;;;;;;;5057754;28;20124;-58
2022/07/18 01:03:08;;;;;;;9.37;6.70;;;;;;;;;;5057741;28;20044;-58
2022/07/18 01:05:34;;;;;;;5.60;4.27;;;;;;;;;;5059581;28;20051;-58
2022/07/18 01:08:00;;;;;;;7.77;4.87;;;;;;;;;;5058319;28;20056;-58
2022/07/18 01:10:26;;;;;;;12.60;6.10;;;;;;;;;;5059757;28;20048;-58
2022/07/18 01:12:52;;;;;;;14.80;6.37;;;;;;;;;;5058374;28;20384;-58
2022/07/18 01:15:18;;;;;;;10.23;6.00;;;;;;;;;;5057856;28;20542;-58
2022/07/18 01:17:44;;;;;;;8.63;5.87;;;;;;;;;;5059797;28;20119;-59
2022/07/18 01:20:10;;;;;;;11.97;8.00;;;;;;;;;;5058218;28;20049;-58
2022/07/18 01:22:38;;;;;;;13.60;7.87;;;;;;;;;;5058521;28;20120;-58
2022/07/18 01:25:05;;;;;;;13.17;8.83;;;;;;;;;;5059258;28;20048;-58
2022/07/18 01:27:31;;;;;;;14.17;9.17;;;;;;;;;;5057208;28;20131;-58
2022/07/18 01:29:57;;;;;;;12.93;8.40;;;;;;;;;;5058784;28;20566;-58
2022/07/18 01:32:23;;;;;;;13.03;9.17;;;;;;;;;;5057265;28;20541;-58
2022/07/18 01:34:50;;;;;;;14.37;9.30;;;;;;;;;;5058941;28;20044;-58
2022/07/18 01:37:16;;;;;;;14.20;9.17;;;;;;;;;;5058688;28;20423;-58
2022/07/18 01:39:43;;;;;;;15.77;9.13;;;;;;;;;;5057174;28;20041;-58
2022/07/18 01:42:10;;;;;;;15.93;9.50;;;;;;;;;;5059080;28;20419;-58
2022/07/18 01:44:36;;;;;;;17.43;9.47;;;;;;;;;;5056548;28;20060;-58
2022/07/18 01:47:06;;;;;;;16.47;9.67;;;;;;;;;;5059497;28;20058;-58
2022/07/18 01:49:32;;;;;;;17.80;9.77;;;;;;;;;;5057402;28;20539;-58
2022/07/18 01:51:58;;;;;;;15.40;10.17;;;;;;;;;;5058105;28;20471;-57
2022/07/18 01:54:26;;;;;;;13.60;8.37;;;;;;;;;;5059359;28;20043;-58
2022/07/18 01:56:52;;;;;;;14.50;9.67;;;;;;;;;;5056650;28;20040;-58
2022/07/18 01:59:18;;;;;;;16.73;10.00;;;;;;;;;;5058617;28;20052;-58
2022/07/18 02:01:44;;;;;;;12.87;8.43;;;;;;;;;;5056878;28;20048;-58
2022/07/18 02:04:11;;;;;;;15.63;9.20;;;;;;;;;;5056463;28;20067;-58
2022/07/18 02:06:37;;;;;;;12.90;8.67;;;;;;;;;;5058469;28;20045;-58
2022/07/18 02:09:04;;;;;;;14.73;8.60;;;;;;;;;;5056769;28;20518;-57
2022/07/18 02:11:30;;;;;;;14.27;9.30;;;;;;;;;;5056569;28;20036;-58
2022/07/18 02:13:56;;;;;;;13.83;9.33;;;;;;;;;;5057981;28;20090;-59
2022/07/18 02:16:22;;;;;;;13.50;8.07;;;;;;;;;;5058842;28;20510;-58
2022/07/18 02:18:48;;;;;;;11.17;7.03;;;;;;;;;;5057282;28;20041;-58
2022/07/18 02:21:14;;;;;;;10.87;5.90;;;;;;;;;;5057973;28;20039;-58
2022/07/18 02:23:41;;;;;;;8.80;6.40;;;;;;;;;;5058166;28;20965;-57
2022/07/18 02:26:07;;;;;;;14.00;8.37;;;;;;;;;;5056427;28;20041;-58
2022/07/18 02:28:33;;;;;;;14.73;10.70;;;;;;;;;;5057612;28;20074;-57
2022/07/18 02:30:59;;;;;;;16.00;10.30;;;;;;;;;;5058373;28;20530;-58
2022/07/18 02:33:25;;;;;;;14.53;9.13;;;;;;;;;;5056568;28;20514;-58
2022/07/18 02:35:51;;;;;;;13.83;8.90;;;;;;;;;;5057795;28;20040;-58
2022/07/18 02:38:17;;;;;;;14.33;8.37;;;;;;;;;;5059026;28;20298;-58
2022/07/18 02:40:43;;;;;;;16.50;8.50;;;;;;;;;;5058396;28;20086;-58
2022/07/18 02:43:09;;;;;;;13.30;8.87;;;;;;;;;;5056746;28;20053;-58
2022/07/18 02:45:35;;;;;;;15.83;9.47;;;;;;;;;;5057223;28;20037;-58
2022/07/18 02:48:01;;;;;;;16.63;9.13;;;;;;;;;;5054631;28;20690;-58
2022/07/18 02:50:28;;;;;;;13.57;8.80;;;;;;;;;;5057941;28;20040;-58
2022/07/18 02:52:56;;;;;;;16.37;10.20;;;;;;;;;;5057385;28;20037;-58
2022/07/18 02:55:22;;;;;;;15.60;10.10;;;;;;;;;;5055887;28;20517;-58
2022/07/18 02:57:49;;;;;;;19.83;11.23;;;;;;;;;;5058169;28;20044;-58
2022/07/18 03:00:16;;;;;;;17.47;11.13;;;;;;;;;;5055812;28;20040;-58
2022/07/18 03:02:42;;;;;;;16.23;10.07;;;;;;;;;;5058404;28;20045;-58
2022/07/18 03:05:09;;;;;;;16.50;9.70;;;;;;;;;;5058688;28;20068;-58
2022/07/18 03:07:35;;;;;;;20.23;9.60;;;;;;;;;;5058199;28;20037;-58
2022/07/18 03:10:01;;;;;;;14.43;9.67;;;;;;;;;;5055693;28;20490;-58
2022/07/18 03:12:27;;;;;;;16.67;9.83;;;;;;;;;;5058483;28;20041;-58
2022/07/18 03:14:53;;;;;;;16.13;9.23;;;;;;;;;;5058030;28;20047;-58
2022/07/18 03:17:19;;;;;;;19.40;10.67;;;;;;;;;;5057636;28;20041;-58
2022/07/18 03:19:45;;;;;;;17.10;10.23;;;;;;;;;;5055502;28;20578;-57
2022/07/18 03:22:11;;;;;;;17.60;9.87;;;;;;;;;;5048430;28;20132;-58
2022/07/18 03:24:37;;;;;;;17.80;10.87;;;;;;;;;;5048326;28;20094;-58
2022/07/18 03:27:03;;;;;;;23.30;10.73;;;;;;;;;;5048473;28;20475;-58
2022/07/18 03:29:29;;;;;;;12.60;8.40;;;;;;;;;;5047668;28;20048;-58
2022/07/18 03:31:55;;;;;;;14.03;8.30;;;;;;;;;;5048149;28;20433;-58
2022/07/18 03:34:21;;;;;;;18.03;10.83;;;;;;;;;;5048007;28;20047;-58
2022/07/18 03:36:47;;;;;;;18.30;11.27;;;;;;;;;;5048584;28;20040;-58
2022/07/18 03:39:13;;;;;;;20.57;11.60;;;;;;;;;;5051858;28;20041;-58
2022/07/18 03:41:40;;;;;;;16.73;11.67;;;;;;;;;;5051743;28;20407;-58
2022/07/18 03:44:06;;;;;;;16.63;10.30;;;;;;;;;;5051332;28;20106;-58
2022/07/18 03:46:32;;;;;;;20.97;10.20;;;;;;;;;;5051561;28;20056;-58
2022/07/18 03:48:59;;;;;;;20.17;11.30;;;;;;;;;;5051544;28;20132;-58
2022/07/18 03:51:25;;;;;;;19.13;11.93;;;;;;;;;;5051305;28;20429;-58
2022/07/18 03:53:51;;;;;;;18.70;11.60;;;;;;;;;;5053834;28;20045;-58
2022/07/18 03:56:17;;;;;;;16.43;10.47;;;;;;;;;;5059038;28;20047;-58
2022/07/18 03:58:44;;;;;;;15.67;10.40;;;;;;;;;;5062690;28;20045;-58
2022/07/18 04:01:10;;;;;;;17.67;10.37;;;;;;;;;;5058913;28;20083;-58
2022/07/18 04:03:36;;;;;;;14.10;10.10;;;;;;;;;;5061089;28;20051;-58
2022/07/18 04:06:02;;;;;;;17.10;11.13;;;;;;;;;;5060113;28;20079;-58
2022/07/18 04:08:28;;;;;;;14.97;9.00;;;;;;;;;;5057790;28;20071;-59
2022/07/18 04:10:54;;;;;;;15.17;9.57;;;;;;;;;;5059178;28;20037;-58
2022/07/18 04:13:20;;;;;;;13.73;9.00;;;;;;;;;;5059951;28;20043;-58
2022/07/18 04:15:46;;;;;;;14.53;9.20;;;;;;;;;;5066923;28;20048;-59
2022/07/18 04:18:12;;;;;;;15.13;8.57;;;;;;;;;;5071278;28;20041;-58
2022/07/18 04:20:38;;;;;;;17.67;9.87;;;;;;;;;;5071084;28;20040;-58
2022/07/18 04:23:05;;;;;;;13.87;8.30;;;;;;;;;;5071007;28;20048;-58
2022/07/18 04:25:36;;;;;;;13.23;8.77;;;;;;;;;;5071159;28;20121;-57
2022/07/18 04:28:02;;;;;;;13.13;8.50;;;;;;;;;;5071047;28;20165;-58
2022/07/18 04:30:28;;;;;;;11.00;6.83;;;;;;;;;;5071114;28;20079;-58
2022/07/18 04:32:55;;;;;;;12.60;7.07;;;;;;;;;;5071019;28;20045;-58
2022/07/18 04:35:22;;;;;;;11.73;7.50;;;;;;;;;;5070662;28;20063;-58
2022/07/18 04:37:48;;;;;;;13.73;7.00;;;;;;;;;;5070759;28;20045;-58
2022/07/18 04:40:15;;;;;;;10.50;7.47;;;;;;;;;;5069536;28;20418;-58
2022/07/18 04:42:41;;;;;;;8.80;6.57;;;;;;;;;;5070628;28;20099;-58
2022/07/18 04:45:08;;;;;;;12.23;6.83;;;;;;;;;;5070921;28;20490;-58
2022/07/18 04:47:34;;;;;;;14.90;7.47;;;;;;;;;;5070025;28;20087;-58
2022/07/18 04:50:00;;;;;;;14.30;6.90;;;;;;;;;;5070408;28;20059;-58
2022/07/18 04:52:26;;;;;;;11.97;8.03;;;;;;;;;;5070862;28;20050;-57
2022/07/18 04:54:52;;;;;;;12.33;7.00;;;;;;;;;;5070247;28;20117;-58
2022/07/18 04:57:19;;;;;;;12.90;7.07;;;;;;;;;;5070098;28;20494;-58
2022/07/18 04:59:46;;;;;;;12.43;7.23;;;;;;;;;;5066794;28;20078;-58
2022/07/18 05:02:12;;;;;;;11.30;6.60;;;;;;;;;;5070517;28;20062;-57
2022/07/18 05:04:38;;;;;;;10.37;6.80;;;;;;;;;;5070500;28;20480;-58
2022/07/18 05:07:05;;;;;;;11.20;6.80;;;;;;;;;;5069881;28;20518;-58
2022/07/18 05:09:31;;;;;;;12.10;6.63;;;;;;;;;;5070185;28;20102;-58
2022/07/18 05:11:57;;;;;;;10.50;7.00;;;;;;;;;;5069984;28;20048;-57
2022/07/18 05:14:23;;;;;;;11.80;6.93;;;;;;;;;;5070350;28;20406;-59
2022/07/18 05:16:49;;;;;;;11.60;6.50;;;;;;;;;;5070268;28;20048;-58
2022/07/18 05:19:15;;;;;;;9.30;6.13;;;;;;;;;;5069671;28;20094;-58
2022/07/18 05:21:42;;;;;;;12.73;6.33;;;;;;;;;;5070075;28;20049;-57
2022/07/18 05:24:08;;;;;;;11.73;6.57;;;;;;;;;;5068655;28;20080;-58
2022/07/18 05:26:34;;;;;;;12.53;7.77;;;;;;;;;;5060088;28;20048;-58
2022/07/18 05:29:00;;;;;;;10.60;7.10;;;;;;;;;;5060264;28;20095;-59
2022/07/18 05:31:26;;;;;;;10.27;6.43;;;;;;;;;;5057193;28;20094;-58
2022/07/18 05:33:52;;;;;;;14.33;6.27;;;;;;;;;;5058722;28;20044;-58
2022/07/18 05:36:18;;;;;;;13.43;6.17;;;;;;;;;;5058055;28;20055;-58
2022/07/18 05:38:44;;;;;;;10.53;6.30;;;;;;;;;;5055846;28;20048;-58
2022/07/18 05:41:10;;;;;;;8.90;5.63;;;;;;;;;;5058461;28;20044;-58
2022/07/18 05:43:36;;;;;;;11.17;5.27;;;;;;;;;;5057891;28;20063;-59
2022/07/18 05:46:02;;;;;;;8.00;5.07;;;;;;;;;;5057484;28;20055;-58
2022/07/18 05:48:28;;;;;;;11.70;6.17;;;;;;;;;;5058699;28;20037;-58
2022/07/18 05:50:54;;;;;;;9.93;4.90;;;;;;;;;;5056480;28;20076;-59
2022/07/18 05:53:20;;;;;;;8.67;4.90;;;;;;;;;;5048694;28;20071;-58
2022/07/18 05:55:46;;;;;;;8.70;4.47;;;;;;;;;;5049424;28;20048;-58
2022/07/18 05:58:12;;;;;;;7.60;4.77;;;;;;;;;;5049689;28;20041;-59
2022/07/18 06:00:39;;;;;;;8.47;4.47;;;;;;;;;;5055772;28;20041;-58
2022/07/18 06:03:05;;;;;;;8.53;4.50;;;;;;;;;;5056976;28;20074;-57
2022/07/18 06:05:31;;;;;;;8.77;4.97;;;;;;;;;;5058876;28;20052;-58
2022/07/18 06:07:57;;;;;;;6.93;4.77;;;;;;;;;;5057809;28;20056;-57
2022/07/18 06:10:26;;;;;;;7.80;4.63;;;;;;;;;;5057026;28;20071;-57
2022/07/18 06:12:53;;;;;;;5.87;3.97;;;;;;;;;;5056928;28;20040;-57
2022/07/18 06:15:19;;;;;;;9.27;4.20;;;;;;;;;;5057010;28;20495;-58
2022/07/18 06:17:45;;;;;;;12.27;4.20;;;;;;;;;;5058442;28;20048;-58
2022/07/18 06:20:11;;;;;;;14.10;5.43;;;;;;;;;;5056505;28;20060;-58
2022/07/18 06:22:37;;;;;;;10.87;3.93;;;;;;;;;;5068825;28;20076;-57
2022/07/18 06:25:04;;;;;;;8.17;4.70;;;;;;;;;;5068654;28;20148;-57
2022/07/18 06:27:30;;;;;;;17.50;5.10;;;;;;;;;;5067852;28;20160;-58
2022/07/18 06:29:58;;;;;;;9.53;4.13;;;;;;;;;;5067619;28;20131;-57
2022/07/18 06:32:24;;;;;;;8.27;4.37;;;;;;;;;;5066554;28;20052;-57
2022/07/18 06:34:50;;;;;;;10.53;4.90;;;;;;;;;;5067418;28;20059;-58
2022/07/18 06:37:16;;;;;;;7.40;3.40;;;;;;;;;;5066034;28;20044;-57
2022/07/18 06:39:42;;;;;;;8.27;3.80;;;;;;;;;;5067586;28;20102;-57
2022/07/18 06:42:08;;;;;;;8.37;4.07;;;;;;;;;;5066770;28;20093;-57
2022/07/18 06:44:34;;;;;;;7.37;3.97;;;;;;;;;;5066840;28;20050;-57
2022/07/18 06:47:00;;;;;;;7.53;3.43;;;;;;;;;;5067154;28;20387;-57
2022/07/18 06:49:26;;;;;;;7.90;3.53;;;;;;;;;;5066230;28;20049;-58
2022/07/18 06:51:52;;;;;;;11.07;4.67;;;;;;;;;;5066016;28;20041;-57
2022/07/18 06:54:20;;;;;;;9.97;4.00;;;;;;;;;;5067237;28;20063;-57
2022/07/18 06:56:46;;;;;;;10.07;3.77;;;;;;;;;;5066131;28;20051;-57
2022/07/18 06:59:12;;;;;;;10.07;3.60;;;;;;;;;;5066917;28;20586;-57
2022/07/18 07:01:38;;;;;;;8.23;3.50;;;;;;;;;;5067458;28;20049;-57
2022/07/18 07:04:04;;;;;;;5.40;3.43;;;;;;;;;;5067477;28;20101;-57
2022/07/18 07:06:30;;;;;;;9.10;3.90;;;;;;;;;;5067385;28;20052;-58
2022/07/18 07:08:56;;;;;;;8.50;3.90;;;;;;;;;;5065857;28;20052;-58
2022/07/18 07:11:22;;;;;;;9.27;3.97;;;;;;;;;;5069312;28;20056;-57
2022/07/18 07:13:48;;;;;;;12.63;3.47;;;;;;;;;;5070821;28;20056;-57
2022/07/18 07:16:15;;;;;;;7.10;3.67;;;;;;;;;;5071165;28;20511;-57
2022/07/18 07:18:41;;;;;;;7.57;3.33;;;;;;;;;;5071524;28;20423;-57
2022/07/18 07:21:08;;;;;;;7.30;3.50;;;;;;;;;;5071009;28;20049;-58
2022/07/18 07:23:34;;;;;;;9.90;3.20;;;;;;;;;;5071481;28;20088;-58
2022/07/18 07:26:00;;;;;;;10.53;3.30;;;;;;;;;;5070806;28;20044;-57
2022/07/18 07:28:26;;;;;;;5.90;2.60;;;;;;;;;;5070687;28;20601;-58
2022/07/18 07:30:52;;;;;;;10.77;3.23;;;;;;;;;;5070965;28;20410;-58
2022/07/18 07:33:18;;;;;;;9.73;4.07;;;;;;;;;;5071082;28;20135;-57
2022/07/18 07:35:44;;;;;;;8.90;3.30;;;;;;;;;;5070778;28;20049;-57
2022/07/18 07:38:17;;;;;;;7.93;2.93;;;;;;;;;;5070007;28;20489;-58
2022/07/18 07:40:43;;;;;;;;;;;;;;;;;;5071320;28;20517;-57
2022/07/18 07:43:10;;;;;;;9.13;3.10;;;;;;;;;;5070274;28;19920;-58
2022/07/18 07:45:37;;;;;;;11.73;3.20;;;;;;;;;;5070654;28;20041;-57
2022/07/18 07:48:03;;;;;;;6.27;2.60;;;;;;;;;;5070542;28;20101;-58
2022/07/18 07:50:29;;;;;;;8.33;2.80;;;;;;;;;;5069864;28;20087;-57
2022/07/18 07:52:56;;;;;;;7.63;2.60;;;;;;;;;;5070579;28;20052;-57
2022/07/18 07:55:22;;;;;;;5.83;2.53;;;;;;;;;;5070311;28;20056;-58
2022/07/18 07:57:48;;;;;;;5.97;3.03;;;;;;;;;;5070375;28;20097;-58
2022/07/18 08:00:14;;;;;;;4.73;2.40;;;;;;;;;;5070431;28;20474;-58
2022/07/18 08:02:57;;;;;;;8.50;3.03;;;;;;;;;;5070356;28;20559;-58
2022/07/18 08:05:23;;;;;;;4.13;2.35;;;;;;;;;;5070536;28;20123;-58
2022/07/18 08:07:49;;;;;;;9.33;3.47;;;;;;;;;;5070479;28;20098;-58
2022/07/18 08:10:15;;;;;;;6.43;3.23;;;;;;;;;;5070049;28;20048;-58
2022/07/18 08:12:41;;;;;;;8.73;2.47;;;;;;;;;;5070592;28;20410;-58
2022/07/18 08:15:08;;;;;;;7.40;2.63;;;;;;;;;;5070435;28;20041;-59
2022/07/18 08:17:34;;;;;;;5.20;2.80;;;;;;;;;;5069345;28;20080;-58
2022/07/18 08:20:00;;;;;;;8.15;3.20;;;;;;;;;;5069914;28;20127;-58
2022/07/18 08:22:26;;;;;;;12.57;2.70;;;;;;;;;;5069485;28;20457;-58
2022/07/18 08:24:53;;;;;;;6.35;2.33;;;;;;;;;;5070020;28;20041;-59
2022/07/18 08:27:19;;;;;;;7.60;2.20;;;;;;;;;;5069681;28;20080;-59
2022/07/18 08:29:45;;;;;;;4.28;2.38;;;;;;;;;;5070017;28;20115;-59
2022/07/18 08:32:11;;;;;;;7.35;2.40;;;;;;;;;;5069787;28;20197;-59
2022/07/18 08:34:37;;;;;;;7.22;2.13;;;;;;;;;;5069926;28;20076;-59
2022/07/18 08:37:03;;;;;;;6.80;2.42;;;;;;;;;;5070170;28;20620;-59
2022/07/18 08:39:29;;;;;;;6.28;2.20;;;;;;;;;;5070133;28;20136;-59
2022/07/18 08:41:55;;;;;;;5.78;2.10;;;;;;;;;;5069386;28;20040;-59
2022/07/18 08:44:21;;;;;;;7.35;2.38;;;;;;;;;;5069602;28;20048;-59
2022/07/18 08:46:49;;;;;;;5.75;2.30;;;;;;;;;;5069502;28;20447;-59
2022/07/18 08:49:16;;;;;;;3.03;1.85;;;;;;;;;;5069519;28;20049;-59
2022/07/18 08:51:43;;;;;;;7.32;2.60;;;;;;;;;;5069069;28;20044;-59
2022/07/18 08:54:09;;;;;;;5.80;2.10;;;;;;;;;;5069938;28;20456;-59
2022/07/18 08:56:35;;;;;;;10.48;2.50;;;;;;;;;;5069533;28;20045;-59
2022/07/18 08:59:02;;;;;;;5.82;1.67;;;;;;;;;;5069716;28;20036;-59
2022/07/18 09:01:29;;;;;;;8.70;1.85;;;;;;;;;;5068619;28;20048;-59
2022/07/18 09:06:46;;;;;;;5.38;1.98;;;;;;;;;;5069254;28;20048;-59
2022/07/18 09:09:13;;;;;;;6.28;1.98;;;;;;;;;;5069169;28;20094;-59
2022/07/18 09:11:50;;;;;;;4.57;2.20;;;;;;;;;;5069179;28;20044;-59
2022/07/18 09:14:38;;;;;;;8.18;1.60;;;;;;;;;;5068704;28;20123;-60
2022/07/18 09:17:05;;;;;;;4.70;1.70;;;;;;;;;;5069044;28;20059;-59
2022/07/18 09:19:31;;;;;;;6.75;1.90;;;;;;;;;;5068760;28;20226;-59
2022/07/18 09:22:20;;;;;;;5.43;2.35;;;;;;;;;;5069171;28;20084;-59
2022/07/18 09:24:54;;;;;;;7.55;1.75;;;;;;;;;;5065494;28;20175;-59
2022/07/18 09:27:24;;;;;;;4.93;1.85;;;;;;;;;;5068686;28;20331;-60
2022/07/18 09:30:20;;;;;;;5.53;1.98;;;;;;;;;;5068813;28;20131;-59
2022/07/18 09:33:06;;;;;;;5.85;1.90;;;;;;;;;;5063532;28;20064;-59
2022/07/18 09:35:33;;;;;;;6.97;1.90;;;;;;;;;;5067509;28;20537;-59
2022/07/18 09:38:09;;;;;;;5.18;1.45;;;;;;;;;;5068682;28;20049;-59
2022/07/18 09:40:37;;;;;;;4.35;1.55;;;;;;;;;;5068863;28;20038;-60
2022/07/18 09:43:04;;;;;;;6.18;2.28;;;;;;;;;;5068620;28;20091;-59
2022/07/18 09:45:34;;;;;;;4.45;1.58;;;;;;;;;;5068352;28;20063;-60
2022/07/18 09:48:02;;;;;;;3.90;1.58;;;;;;;;;;5068745;28;20166;-60
2022/07/18 09:50:30;;;;;;;5.38;1.75;;;;;;;;;;5068772;28;20094;-59
2022/07/18 09:52:57;;;;;;;7.97;1.98;;;;;;;;;;5069240;28;20044;-59
2022/07/18 09:55:23;;;;;;;6.90;1.77;;;;;;;;;;5060967;28;20127;-59
2022/07/18 09:58:01;;;;;;;3.80;1.50;;;;;;;;;;5057013;28;20033;-59
2022/07/18 10:00:28;;;;;;;5.03;1.52;;;;;;;;;;5057140;28;20155;-59
2022/07/18 10:02:55;;;;;;;4.47;1.65;;;;;;;;;;5057158;28;20044;-60
2022/07/18 10:05:21;;;;;;;4.30;1.30;;;;;;;;;;5059376;28;20045;-59
2022/07/18 10:07:47;;;;;;;7.72;1.95;;;;;;;;;;5058245;28;20123;-60
2022/07/18 10:10:17;;;;;;;5.47;2.15;;;;;;;;;;5056711;28;20076;-59
2022/07/18 10:12:43;;;;;;;4.85;1.40;;;;;;;;;;5054090;28;20106;-59
2022/07/18 10:15:09;;;;;;;3.88;1.92;;;;;;;;;;5049076;28;20041;-59
2022/07/18 10:17:36;;;;;;;6.32;1.90;;;;;;;;;;5048894;28;20045;-59
2022/07/18 10:20:06;;;;;;;6.20;1.95;;;;;;;;;;5048965;28;20411;-60
2022/07/18 10:22:42;;;;;;;4.97;1.70;;;;;;;;;;5048860;28;20069;-59
2022/07/18 10:25:08;;;;;;;7.25;1.90;;;;;;;;;;5065538;28;20035;-59
2022/07/18 10:27:50;;;;;;;6.57;2.40;;;;;;;;;;5068658;28;20071;-59
2022/07/18 10:30:19;;;;;;;5.75;1.70;;;;;;;;;;5068330;28;20094;-60
2022/07/18 10:32:45;;;;;;;5.10;1.70;;;;;;;;;;5068616;28;20048;-59
2022/07/18 10:35:15;;;;;;;4.55;1.52;;;;;;;;;;5068459;28;20060;-59
2022/07/18 10:37:41;;;;;;;3.03;1.48;;;;;;;;;;5068446;28;20048;-59
2022/07/18 10:40:27;;;;;;;6.30;2.22;;;;;;;;;;5068598;28;20044;-59
2022/07/18 10:43:12;;;;;;;4.75;1.90;;;;;;;;;;5068301;28;20132;-60
2022/07/18 10:45:45;;;;;;;5.13;2.88;;;;;;;;;;5067859;28;20052;-60
2022/07/18 10:48:29;;;;;;;4.88;1.88;;;;;;;;;;5060829;28;20048;-60
2022/07/18 10:51:01;;;;;;;4.65;1.90;;;;;;;;;;5056364;28;20056;-60
2022/07/18 10:53:47;;;;;;;3.22;1.83;;;;;;;;;;5053988;28;20045;-59
2022/07/18 10:56:13;;;;;;;3.78;1.92;;;;;;;;;;5057767;28;20442;-59
2022/07/18 10:58:40;;;;;;;4.53;2.17;;;;;;;;;;5055002;28;20052;-59
2022/07/18 11:01:11;;;;;;;7.93;2.40;;;;;;;;;;5060758;28;20041;-60
2022/07/18 11:03:37;;;;;;;3.63;2.10;;;;;;;;;;5059412;28;20086;-59
2022/07/18 11:06:03;;;;;;;3.92;2.03;;;;;;;;;;5054692;28;20499;-59
2022/07/18 11:08:33;;;;;;;4.75;1.88;;;;;;;;;;5053248;28;20395;-60
2022/07/18 11:11:02;;;;;;;7.07;2.75;;;;;;;;;;5058508;28;20120;-59
2022/07/18 11:13:28;;;;;;;3.40;1.63;;;;;;;;;;5056199;28;20044;-60
2022/07/18 11:15:59;;;;;;;4.50;1.95;;;;;;;;;;5057823;28;20059;-59
2022/07/18 11:18:25;;;;;;;3.40;2.05;;;;;;;;;;5056366;28;20143;-59
2022/07/18 11:20:51;;;;;;;6.07;2.10;;;;;;;;;;5058140;28;20184;-60
2022/07/18 11:23:21;;;;;;;8.20;2.30;;;;;;;;;;5048069;28;20037;-60
2022/07/18 11:25:51;;;;;;;4.13;2.15;;;;;;;;;;5048187;28;20044;-59
2022/07/18 11:28:18;;;;;;;7.55;2.30;;;;;;;;;;5048117;28;20044;-60
2022/07/18 11:30:45;;;;;;;7.05;2.47;;;;;;;;;;5047815;28;20049;-59
2022/07/18 11:33:22;;;;;;;5.43;2.30;;;;;;;;;;5047748;28;20048;-59
2022/07/18 11:35:48;;;;;;;6.97;2.63;;;;;;;;;;5047095;28;20045;-60
2022/07/18 11:38:14;;;;;;;7.53;2.53;;;;;;;;;;5048053;28;20037;-60
2022/07/18 11:40:47;;;;;;;5.05;3.08;;;;;;;;;;5047897;28;20049;-59
2022/07/18 11:43:19;;;;;;;6.53;2.42;;;;;;;;;;5047291;28;20140;-60
2022/07/18 11:45:45;;;;;;;4.25;2.10;;;;;;;;;;5048240;28;20083;-59
2022/07/18 11:48:11;;;;;;;4.28;2.47;;;;;;;;;;5047777;28;20072;-60
2022/07/18 11:50:38;;;;;;;3.40;2.50;;;;;;;;;;5047676;28;20499;-60
2022/07/18 11:53:04;;;;;;;3.03;2.17;;;;;;;;;;5047668;28;20048;-59
2022/07/18 11:55:34;;;;;;;4.45;2.30;;;;;;;;;;5047893;28;20045;-60
2022/07/18 11:58:14;;;;;;;3.63;2.30;;;;;;;;;;5047793;28;20040;-60
2022/07/18 12:00:41;;;;;;;4.38;2.53;;;;;;;;;;5051662;28;20053;-60
2022/07/18 12:03:12;;;;;;;3.85;2.00;;;;;;;;;;5051255;28;20045;-60
2022/07/18 12:05:48;;;;;;;3.78;2.10;;;;;;;;;;5051661;28;20098;-60
2022/07/18 12:08:30;;;;;;;4.60;2.33;;;;;;;;;;5051847;28;20045;-60
2022/07/18 12:11:25;;;;;;;4.63;2.30;;;;;;;;;;5051449;28;20396;-60
2022/07/18 12:13:55;;;;;;;4.10;2.20;;;;;;;;;;5041993;28;20396;-60
2022/07/18 12:16:25;;;;;;;3.97;2.13;;;;;;;;;;5051078;28;20041;-61
2022/07/18 12:18:52;;;;;;;3.65;2.20;;;;;;;;;;5051206;28;20045;-60
2022/07/18 12:21:18;;;;;;;6.78;2.20;;;;;;;;;;5051049;28;20049;-60
2022/07/18 12:23:45;;;;;;;3.42;2.15;;;;;;;;;;5051051;28;20103;-60
2022/07/18 12:26:26;;;;;;;3.95;2.40;;;;;;;;;;5050580;28;20049;-60
2022/07/18 12:29:03;;;;;;;3.38;1.85;;;;;;;;;;5050769;28;20045;-60
2022/07/18 12:31:39;;;;;;;6.60;2.38;;;;;;;;;;5050801;28;20037;-60
2022/07/18 12:34:12;;;;;;;3.72;2.30;;;;;;;;;;5050928;28;20084;-60
2022/07/18 12:36:54;;;;;;;5.03;2.20;;;;;;;;;;5050863;28;20136;-59
2022/07/18 12:39:30;;;;;;;4.28;1.95;;;;;;;;;;5050475;28;20418;-60
2022/07/18 12:41:57;;;;;;;5.22;2.10;;;;;;;;;;5050831;28;21225;-60
2022/07/18 12:44:23;;;;;;;5.35;2.17;;;;;;;;;;5050528;28;20056;-60
2022/07/18 12:46:49;;;;;;;5.10;1.90;;;;;;;;;;5050648;28;20163;-61
2022/07/18 12:49:15;;;;;;;3.67;2.03;;;;;;;;;;5050502;28;20132;-60
2022/07/18 12:51:41;;;;;;;5.95;2.00;;;;;;;;;;5050478;28;20482;-60
2022/07/18 12:54:08;;;;;;;4.63;1.92;;;;;;;;;;5050113;28;20515;-60
2022/07/18 12:56:34;;;;;;;6.65;2.53;;;;;;;;;;5050495;28;20056;-60
2022/07/18 12:59:00;;;;;;;4.10;2.03;;;;;;;;;;5050736;28;20041;-59
2022/07/18 13:01:27;;;;;;;3.65;2.13;;;;;;;;;;5056052;28;20079;-59
2022/07/18 13:03:53;;;;;;;3.33;2.00;;;;;;;;;;5060990;28;20068;-60
2022/07/18 13:06:19;;;;;;;3.97;2.17;;;;;;;;;;5059292;28;20127;-60
2022/07/18 13:08:45;;;;;;;5.22;1.92;;;;;;;;;;5059473;28;20466;-60
2022/07/18 13:11:11;;;;;;;3.03;2.10;;;;;;;;;;5058185;28;20412;-59
2022/07/18 13:13:37;;;;;;;3.63;2.10;;;;;;;;;;5058697;28;20119;-60
2022/07/18 13:16:03;;;;;;;2.90;1.77;;;;;;;;;;5061739;28;20103;-60
2022/07/18 13:18:29;;;;;;;5.53;2.33;;;;;;;;;;5057984;28;20049;-59
2022/07/18 13:20:55;;;;;;;3.47;2.15;;;;;;;;;;5061006;28;20046;-60
2022/07/18 13:23:21;;;;;;;5.25;2.10;;;;;;;;;;5061356;28;20041;-60
2022/07/18 13:25:47;;;;;;;4.75;2.58;;;;;;;;;;5062790;28;20139;-60
2022/07/18 13:28:13;;;;;;;5.47;2.22;;;;;;;;;;5057951;28;20047;-60
2022/07/18 13:30:39;;;;;;;2.60;1.80;;;;;;;;;;5061790;28;20044;-59
2022/07/18 13:33:06;;;;;;;5.40;2.15;;;;;;;;;;5062217;28;20052;-60
2022/07/18 13:35:32;;;;;;;3.25;2.13;;;;;;;;;;5056837;28;20036;-60
2022/07/18 13:37:58;;;;;;;3.80;2.33;;;;;;;;;;5056793;28;20487;-59
2022/07/18 13:40:24;;;;;;;4.28;1.67;;;;;;;;;;5052079;28;20037;-59
2022/07/18 13:42:50;;;;;;;3.90;1.88;;;;;;;;;;5049555;28;20045;-59
2022/07/18 13:45:16;;;;;;;4.70;2.00;;;;;;;;;;5049346;28;20052;-59
2022/07/18 13:47:43;;;;;;;5.13;1.98;;;;;;;;;;5049636;28;20056;-59
2022/07/18 13:50:09;;;;;;;5.25;2.20;;;;;;;;;;5049173;28;20091;-59
2022/07/18 13:52:35;;;;;;;6.68;2.10;;;;;;;;;;5049227;28;20115;-59
2022/07/18 13:55:01;;;;;;;3.67;1.80;;;;;;;;;;5049368;28;20067;-59
2022/07/18 13:57:27;;;;;;;6.05;1.75;;;;;;;;;;5049019;28;20111;-59
2022/07/18 13:59:53;;;;;;;3.78;2.03;;;;;;;;;;5049331;28;20110;-59
2022/07/18 14:02:21;;;;;;;5.85;1.85;;;;;;;;;;5049501;28;20045;-59
2022/07/18 14:04:47;;;;;;;4.28;1.92;;;;;;;;;;5049596;28;20048;-59
2022/07/18 14:07:17;;;;;;;6.20;1.85;;;;;;;;;;5048962;28;20037;-59
2022/07/18 14:09:43;;;;;;;4.28;2.25;;;;;;;;;;5049199;28;20056;-60
2022/07/18 14:12:09;;;;;;;6.03;2.40;;;;;;;;;;5049078;28;20410;-59
2022/07/18 14:14:35;;;;;;;3.13;1.90;;;;;;;;;;5048821;28;20071;-59
2022/07/18 14:17:01;;;;;;;3.28;1.83;;;;;;;;;;5049019;28;20117;-59
2022/07/18 14:19:27;;;;;;;3.85;1.67;;;;;;;;;;5048983;28;20037;-60
2022/07/18 14:21:53;;;;;;;3.38;2.10;;;;;;;;;;5048305;28;20099;-60
2022/07/18 14:24:19;;;;;;;4.32;1.80;;;;;;;;;;5048418;28;20514;-60
2022/07/18 14:26:45;;;;;;;3.20;1.92;;;;;;;;;;5048631;28;20037;-60
2022/07/18 14:29:11;;;;;;;4.07;1.88;;;;;;;;;;5048521;28;20496;-60
2022/07/18 14:31:37;;;;;;;2.78;1.65;;;;;;;;;;5048826;28;20103;-60
2022/07/18 14:34:04;;;;;;;5.15;1.73;;;;;;;;;;5048863;28;20041;-60
2022/07/18 14:36:30;;;;;;;5.25;1.63;;;;;;;;;;5048914;28;20049;-60
2022/07/18 14:38:56;;;;;;;4.88;1.80;;;;;;;;;;5050848;28;20094;-61
2022/07/18 14:41:23;;;;;;;5.05;1.75;;;;;;;;;;5068627;28;20056;-60
2022/07/18 14:43:49;;;;;;;4.18;1.60;;;;;;;;;;5068755;28;20068;-61